createdAt,value
2019-05-29T00:00:24.768Z,94.90
2019-05-29T00:02:52.060Z,94.30
2019-05-29T00:05:19.312Z,94.20
2019-05-29T00:07:46.548Z,94.40
2019-05-29T00:10:14.382Z,94.80
2019-05-29T00:12:41.729Z,95.10
2019-05-29T00:15:08.997Z,94.80
2019-05-29T00:17:36.230Z,94.80
2019-05-29T00:20:03.770Z,94.60
2019-05-29T00:22:31.055Z,95.00
2019-05-29T00:24:58.335Z,95.20
2019-05-29T00:27:25.572Z,95.50
2019-05-29T00:29:52.843Z,95.90
2019-05-29T00:32:20.080Z,96.00
2019-05-29T00:34:47.428Z,96.30
2019-05-29T00:37:14.688Z,96.60
2019-05-29T00:39:42.027Z,96.90
2019-05-29T00:42:09.300Z,97.20
2019-05-29T00:44:36.556Z,97.20
2019-05-29T00:47:03.817Z,98.00
2019-05-29T00:49:31.163Z,97.90
2019-05-29T00:51:58.428Z,97.20
2019-05-29T00:54:25.670Z,97.20
2019-05-29T00:56:52.925Z,97.60
2019-05-29T00:59:20.161Z,97.40
2019-05-29T01:01:47.425Z,97.20
2019-05-29T01:04:15.673Z,96.60
2019-05-29T01:06:43.029Z,96.20
2019-05-29T01:09:10.459Z,96.40
2019-05-29T01:11:37.722Z,96.30
2019-05-29T01:14:04.991Z,95.70
2019-05-29T01:16:32.305Z,96.10
2019-05-29T01:19:20.177Z,96.00
2019-05-29T01:21:47.669Z,96.10
2019-05-29T01:24:14.944Z,96.40
2019-05-29T01:26:42.262Z,96.60
2019-05-29T01:29:09.505Z,96.60
2019-05-29T01:31:36.764Z,96.30
2019-05-29T01:34:04.041Z,96.50
2019-05-29T01:36:31.344Z,96.40
2019-05-29T01:38:58.620Z,96.30
2019-05-29T01:41:25.885Z,96.20
2019-05-29T01:43:53.153Z,96.60
2019-05-29T01:46:21.516Z,96.60
2019-05-29T01:48:48.896Z,97.00
2019-05-29T01:51:16.137Z,97.60
2019-05-29T01:53:43.721Z,97.60
2019-05-29T01:56:11.218Z,96.50
2019-05-29T01:58:38.445Z,96.60
2019-05-29T02:01:05.725Z,96.90
2019-05-29T02:03:32.995Z,97.30
2019-05-29T02:06:00.251Z,97.60
2019-05-29T02:08:28.338Z,97.70
2019-05-29T02:10:55.689Z,97.20
2019-05-29T02:13:23.570Z,97.20
2019-05-29T02:15:50.885Z,97.20
2019-05-29T02:18:18.825Z,97.50
2019-05-29T02:20:46.109Z,97.80
2019-05-29T02:23:13.509Z,97.00
2019-05-29T02:25:40.749Z,97.30
2019-05-29T02:28:08.003Z,96.80
2019-05-29T02:30:35.254Z,97.00
2019-05-29T02:33:02.517Z,97.30
2019-05-29T02:35:29.839Z,97.80
2019-05-29T02:37:57.123Z,98.00
2019-05-29T02:40:26.364Z,97.80
2019-05-29T02:42:53.617Z,98.20
2019-05-29T02:45:21.673Z,98.40
2019-05-29T02:47:49.607Z,98.60
2019-05-29T02:50:16.880Z,98.40
2019-05-29T02:52:44.119Z,98.40
2019-05-29T02:55:11.379Z,98.00
2019-05-29T02:57:38.639Z,98.10
2019-05-29T03:00:07.164Z,98.10
2019-05-29T03:02:34.408Z,98.20
2019-05-29T03:05:01.817Z,98.10
2019-05-29T03:07:30.700Z,98.00
2019-05-29T03:09:58.417Z,98.20
2019-05-29T03:12:27.052Z,97.80
2019-05-29T03:14:54.408Z,97.50
2019-05-29T03:17:23.500Z,97.50
2019-05-29T03:19:50.903Z,96.40
2019-05-29T03:22:18.127Z,96.20
2019-05-29T03:24:45.406Z,96.90
2019-05-29T03:27:12.654Z,96.60
2019-05-29T03:29:39.888Z,96.50
2019-05-29T03:32:13.268Z,95.90
2019-05-29T03:34:44.118Z,95.70
2019-05-29T03:37:05.432Z,95.80
2019-05-29T03:39:34.468Z,94.70
2019-05-29T03:42:01.854Z,95.10
2019-05-29T03:44:30.590Z,95.70
2019-05-29T03:46:58.073Z,96.10
2019-05-29T03:49:26.810Z,96.10
2019-05-29T03:51:54.224Z,95.60
2019-05-29T03:54:21.478Z,96.40
2019-05-29T03:56:48.721Z,96.40
2019-05-29T03:59:16.006Z,96.80
2019-05-29T04:01:43.279Z,97.20
2019-05-29T04:04:10.542Z,96.60
2019-05-29T04:06:37.836Z,96.40
2019-05-29T04:09:05.624Z,96.10
2019-05-29T04:11:33.239Z,95.60
2019-05-29T04:14:00.544Z,95.60
2019-05-29T04:16:31.127Z,95.60
2019-05-29T04:18:57.597Z,95.50
2019-05-29T04:21:25.009Z,95.50
2019-05-29T04:23:54.670Z,94.80
2019-05-29T04:26:24.023Z,94.60
2019-05-29T04:28:51.573Z,94.80
2019-05-29T04:31:18.821Z,94.50
2019-05-29T04:33:46.154Z,95.00
2019-05-29T04:36:13.452Z,95.60
2019-05-29T04:38:40.717Z,95.50
2019-05-29T04:41:07.981Z,94.90
2019-05-29T04:43:36.053Z,94.50
2019-05-29T04:46:04.425Z,94.00
2019-05-29T04:48:33.500Z,94.50
2019-05-29T04:51:00.950Z,94.70
2019-05-29T04:53:29.442Z,94.10
2019-05-29T04:55:57.416Z,94.50
2019-05-29T04:58:24.705Z,94.60
2019-05-29T05:00:59.108Z,94.40
2019-05-29T05:03:21.221Z,94.50
2019-05-29T05:05:48.493Z,93.60
2019-05-29T05:08:15.756Z,93.50
2019-05-29T05:10:43.725Z,93.80
2019-05-29T05:13:10.985Z,93.50
2019-05-29T05:15:38.332Z,93.90
2019-05-29T05:18:06.217Z,93.60
2019-05-29T05:20:34.016Z,93.90
2019-05-29T05:23:01.334Z,93.40
2019-05-29T05:25:28.621Z,93.20
2019-05-29T05:27:55.875Z,93.70
2019-05-29T05:30:23.165Z,93.70
2019-05-29T05:32:50.425Z,92.50
2019-05-29T05:35:17.716Z,93.00
2019-05-29T05:37:44.949Z,91.90
2019-05-29T05:40:12.248Z,92.40
2019-05-29T05:42:39.599Z,93.00
2019-05-29T05:45:07.265Z,93.90
2019-05-29T05:47:49.986Z,92.00
2019-05-29T05:50:04.225Z,92.80
2019-05-29T05:52:31.445Z,92.70
2019-05-29T05:54:58.754Z,94.20
2019-05-29T05:57:25.993Z,93.60
2019-05-29T05:59:53.234Z,93.00
2019-05-29T06:02:20.496Z,91.70
2019-05-29T06:04:47.737Z,91.60
2019-05-29T06:07:15.004Z,91.70
2019-05-29T06:09:42.581Z,91.10
2019-05-29T06:12:09.938Z,91.60
2019-05-29T06:14:38.408Z,90.70
2019-05-29T06:17:05.882Z,91.30
2019-05-29T06:19:33.144Z,91.10
2019-05-29T06:22:00.469Z,92.20
2019-05-29T06:24:27.905Z,92.10
2019-05-29T06:26:55.248Z,92.50
2019-05-29T06:29:22.517Z,93.60
2019-05-29T06:31:49.769Z,94.10
2019-05-29T06:34:17.072Z,94.00
2019-05-29T06:36:47.891Z,93.50
2019-05-29T06:39:13.572Z,95.70
2019-05-29T06:41:42.043Z,95.90
2019-05-29T06:44:09.365Z,95.00
2019-05-29T06:46:38.221Z,95.70
2019-05-29T06:49:05.628Z,95.80
2019-05-29T06:51:32.862Z,96.20
2019-05-29T06:54:00.118Z,95.70
2019-05-29T06:56:27.364Z,95.70
2019-05-29T06:58:54.612Z,95.20
2019-05-29T07:01:21.901Z,95.50
2019-05-29T07:03:49.150Z,95.50
2019-05-29T07:06:16.512Z,95.80
2019-05-29T07:08:47.881Z,96.20
2019-05-29T07:11:12.938Z,93.90
2019-05-29T07:13:43.151Z,94.40
2019-05-29T07:16:09.385Z,93.40
2019-05-29T07:18:36.675Z,94.50
2019-05-29T07:21:04.704Z,92.70
2019-05-29T07:23:31.958Z,93.50
2019-05-29T07:25:59.278Z,93.80
2019-05-29T07:28:26.599Z,92.60
2019-05-29T07:31:02.087Z,93.20
2019-05-29T07:33:23.034Z,91.30
2019-05-29T07:35:50.484Z,92.30
2019-05-29T07:38:17.792Z,92.10
2019-05-29T07:40:47.558Z,91.00
2019-05-29T07:43:14.171Z,89.60
2019-05-29T07:45:42.200Z,91.80
2019-05-29T07:48:09.495Z,92.10
2019-05-29T07:50:37.957Z,90.90
2019-05-29T07:53:05.289Z,91.30
2019-05-29T07:55:32.534Z,90.10
2019-05-29T07:57:59.813Z,87.90
2019-05-29T08:00:35.312Z,91.20
2019-05-29T08:02:56.346Z,89.30
2019-05-29T08:05:23.597Z,88.00
2019-05-29T08:07:50.897Z,88.50
2019-05-29T08:10:18.189Z,86.90
2019-05-29T08:12:50.723Z,86.70
2019-05-29T08:15:14.703Z,85.80
2019-05-29T08:17:42.175Z,87.70
2019-05-29T08:20:09.527Z,87.30
2019-05-29T08:22:36.769Z,84.00
2019-05-29T08:25:04.717Z,84.50
2019-05-29T08:27:31.980Z,83.10
2019-05-29T08:29:59.257Z,81.10
2019-05-29T08:32:26.504Z,80.20
2019-05-29T08:34:53.857Z,78.30
2019-05-29T08:37:21.129Z,74.30
2019-05-29T08:39:49.472Z,71.90
2019-05-29T08:42:23.123Z,71.50
2019-05-29T08:44:47.441Z,72.80
2019-05-29T08:47:14.828Z,70.20
2019-05-29T08:49:42.109Z,71.30
2019-05-29T08:52:12.375Z,73.10
2019-05-29T08:54:38.515Z,71.10
2019-05-29T08:57:05.777Z,69.30
2019-05-29T08:59:33.041Z,69.10
2019-05-29T09:02:00.344Z,66.60
2019-05-29T09:04:27.909Z,67.30
2019-05-29T09:09:22.433Z,66.50
2019-05-29T09:11:50.135Z,66.90
2019-05-29T09:14:17.864Z,69.20
2019-05-29T09:16:45.133Z,67.00
2019-05-29T09:19:12.382Z,67.50
2019-05-29T09:21:39.658Z,68.70
2019-05-29T09:24:06.913Z,69.90
2019-05-29T09:26:34.191Z,69.50
2019-05-29T09:29:01.475Z,68.20
2019-05-29T09:31:28.756Z,67.20
2019-05-29T09:33:56.000Z,65.10
2019-05-29T09:36:24.594Z,65.60
2019-05-29T09:38:52.031Z,67.70
2019-05-29T09:41:19.279Z,68.00
2019-05-29T09:43:58.401Z,67.00
2019-05-29T09:46:16.979Z,68.30
2019-05-29T09:48:49.843Z,64.00
2019-05-29T09:51:21.124Z,64.30
2019-05-29T09:53:43.260Z,66.20
2019-05-29T09:56:10.556Z,63.70
2019-05-29T09:58:37.831Z,64.60
2019-05-29T10:01:22.284Z,65.70
2019-05-29T10:03:34.244Z,64.70
2019-05-29T10:06:01.731Z,62.90
2019-05-29T10:08:29.055Z,64.10
2019-05-29T10:11:04.812Z,63.60
2019-05-29T10:13:25.601Z,62.50
2019-05-29T10:15:54.053Z,62.60
2019-05-29T10:18:32.155Z,65.10
2019-05-29T10:20:51.309Z,60.40
2019-05-29T10:23:20.090Z,63.50
2019-05-29T10:25:47.529Z,63.10
2019-05-29T10:28:14.777Z,63.30
2019-05-29T10:30:42.339Z,62.50
2019-05-29T10:33:10.089Z,63.20
2019-05-29T10:35:37.347Z,63.30
2019-05-29T10:38:04.598Z,60.70
2019-05-29T10:40:31.865Z,63.30
2019-05-29T10:42:59.129Z,59.70
2019-05-29T10:47:54.107Z,61.00
2019-05-29T10:50:21.662Z,61.60
2019-05-29T10:52:49.933Z,60.40
2019-05-29T10:55:19.662Z,63.40
2019-05-29T10:57:46.905Z,62.50
2019-05-29T11:00:14.672Z,61.20
2019-05-29T11:02:41.922Z,61.90
2019-05-29T11:05:10.082Z,61.50
2019-05-29T11:07:37.354Z,60.90
2019-05-29T11:10:05.959Z,60.00
2019-05-29T11:12:33.201Z,58.40
2019-05-29T11:15:00.500Z,59.30
2019-05-29T11:17:27.810Z,59.70
2019-05-29T11:19:55.660Z,57.80
2019-05-29T11:22:26.598Z,57.40
2019-05-29T11:24:52.526Z,56.50
2019-05-29T11:27:19.859Z,57.90
2019-05-29T11:32:16.148Z,59.60
2019-05-29T11:34:43.475Z,60.40
2019-05-29T11:37:10.752Z,60.60
2019-05-29T11:39:38.057Z,61.50
2019-05-29T11:42:05.302Z,58.00
2019-05-29T11:44:32.569Z,60.40
2019-05-29T11:46:59.818Z,60.00
2019-05-29T11:49:27.110Z,59.40
2019-05-29T11:52:16.998Z,59.30
2019-05-29T11:54:23.568Z,59.70
2019-05-29T11:56:53.209Z,60.30
2019-05-29T11:59:20.052Z,59.50
2019-05-29T12:01:50.534Z,59.10
2019-05-29T12:04:25.729Z,57.80
2019-05-29T12:06:45.634Z,57.60
2019-05-29T12:09:12.897Z,54.50
2019-05-29T12:11:40.160Z,55.50
2019-05-29T12:14:07.444Z,53.10
2019-05-29T12:16:34.796Z,52.90
2019-05-29T12:19:02.382Z,54.20
2019-05-29T12:21:29.685Z,53.40
2019-05-29T12:23:58.092Z,53.40
2019-05-29T12:26:25.649Z,54.00
2019-05-29T12:31:22.102Z,53.70
2019-05-29T12:33:49.356Z,54.00
2019-05-29T12:36:16.728Z,54.80
2019-05-29T12:38:44.003Z,53.10
2019-05-29T12:41:11.259Z,53.50
2019-05-29T12:43:38.504Z,54.60
2019-05-29T12:46:05.926Z,52.80
2019-05-29T12:48:33.305Z,53.00
2019-05-29T12:51:02.235Z,52.30
2019-05-29T12:53:31.288Z,51.10
2019-05-29T12:56:00.330Z,48.60
2019-05-29T12:58:27.937Z,48.80
2019-05-29T13:00:56.397Z,48.70
2019-05-29T13:03:23.829Z,45.20
2019-05-29T13:05:51.328Z,45.40
2019-05-29T13:10:45.814Z,46.30
2019-05-29T13:13:13.049Z,48.30
2019-05-29T13:15:40.333Z,48.20
2019-05-29T13:18:09.992Z,44.70
2019-05-29T13:20:36.855Z,46.70
2019-05-29T13:23:05.413Z,47.40
2019-05-29T13:25:33.668Z,48.60
2019-05-29T13:28:02.697Z,48.40
2019-05-29T13:30:30.408Z,49.00
2019-05-29T13:33:01.699Z,48.90
2019-05-29T13:35:27.012Z,51.20
2019-05-29T13:37:54.402Z,50.50
2019-05-29T13:40:22.233Z,51.10
2019-05-29T13:42:49.487Z,50.30
2019-05-29T13:45:18.716Z,49.70
2019-05-29T13:47:46.169Z,48.70
2019-05-29T13:50:13.430Z,46.70
2019-05-29T13:52:40.731Z,47.00
2019-05-29T13:55:10.018Z,48.30
2019-05-29T13:57:39.712Z,50.90
2019-05-29T14:02:36.507Z,54.10
2019-05-29T14:05:06.797Z,55.00
2019-05-29T14:07:34.273Z,56.60
2019-05-29T14:10:03.443Z,57.90
2019-05-29T14:12:31.002Z,60.00
2019-05-29T14:14:58.380Z,57.20
2019-05-29T14:17:25.653Z,59.10
2019-05-29T14:19:52.901Z,57.50
2019-05-29T14:22:20.161Z,58.50
2019-05-29T14:24:47.492Z,61.80
2019-05-29T14:27:14.782Z,57.60
2019-05-29T14:29:42.055Z,57.50
2019-05-29T14:32:09.431Z,56.00
2019-05-29T14:34:36.849Z,58.50
2019-05-29T14:37:04.917Z,58.50
2019-05-29T14:39:33.276Z,58.20
2019-05-29T14:42:01.717Z,57.80
2019-05-29T14:44:29.402Z,57.90
2019-05-29T14:46:56.664Z,57.30
2019-05-29T14:49:26.817Z,58.40
2019-05-29T14:51:53.157Z,59.20
2019-05-29T14:54:20.424Z,59.00
2019-05-29T14:56:47.759Z,58.70
2019-05-29T14:59:15.089Z,59.20
2019-05-29T15:01:42.402Z,57.10
2019-05-29T15:04:09.692Z,58.30
2019-05-29T15:06:36.990Z,57.60
2019-05-29T15:09:05.657Z,59.20
2019-05-29T15:11:32.906Z,55.90
2019-05-29T15:16:27.503Z,55.80
2019-05-29T15:18:54.857Z,59.70
2019-05-29T15:21:22.465Z,58.60
2019-05-29T15:23:49.780Z,57.90
2019-05-29T15:26:17.044Z,58.30
2019-05-29T15:28:44.314Z,57.60
2019-05-29T15:31:12.393Z,58.10
2019-05-29T15:33:39.753Z,56.70
2019-05-29T15:36:07.058Z,54.80
2019-05-29T15:38:34.416Z,54.20
2019-05-29T15:41:01.700Z,54.50
2019-05-29T15:43:28.994Z,54.50
2019-05-29T15:45:56.285Z,53.90
2019-05-29T15:48:23.649Z,53.60
2019-05-29T15:50:50.924Z,54.70
2019-05-29T15:55:45.349Z,56.60
2019-05-29T15:58:13.440Z,56.40
2019-05-29T16:00:40.841Z,56.20
2019-05-29T16:03:09.432Z,54.50
2019-05-29T16:05:36.782Z,52.10
2019-05-29T16:08:05.501Z,53.60
2019-05-29T16:10:32.774Z,54.60
2019-05-29T16:13:00.069Z,55.80
2019-05-29T16:15:27.333Z,55.30
2019-05-29T16:17:54.804Z,55.90
2019-05-29T16:20:22.846Z,56.10
2019-05-29T16:22:50.379Z,54.20
2019-05-29T16:25:18.998Z,55.50
2019-05-29T16:27:46.496Z,53.90
2019-05-29T16:30:15.403Z,54.10
2019-05-29T16:32:42.857Z,53.40
2019-05-29T16:35:10.990Z,54.10
2019-05-29T16:37:38.446Z,53.00
2019-05-29T16:40:06.473Z,54.50
2019-05-29T16:42:33.756Z,52.70
2019-05-29T16:45:01.038Z,50.30
2019-05-29T16:47:28.318Z,49.70
2019-05-29T16:49:55.633Z,50.60
2019-05-29T16:52:23.015Z,50.60
2019-05-29T16:54:50.377Z,51.60
2019-05-29T16:57:19.123Z,47.60
2019-05-29T16:59:46.597Z,45.20
2019-05-29T17:02:13.864Z,46.70
2019-05-29T17:04:41.289Z,45.40
2019-05-29T17:07:08.564Z,46.80
2019-05-29T17:09:35.793Z,45.60
2019-05-29T17:12:03.218Z,46.60
2019-05-29T17:16:57.789Z,45.40
2019-05-29T17:19:25.588Z,45.40
2019-05-29T17:21:52.995Z,46.10
2019-05-29T17:24:20.945Z,47.20
2019-05-29T17:26:48.351Z,46.20
2019-05-29T17:29:16.777Z,47.90
2019-05-29T17:31:44.250Z,44.30
2019-05-29T17:34:11.511Z,48.20
2019-05-29T17:36:38.769Z,46.60
2019-05-29T17:39:07.532Z,48.50
2019-05-29T17:41:34.817Z,47.40
2019-05-29T17:44:02.159Z,49.40
2019-05-29T17:46:29.576Z,49.30
2019-05-29T17:48:56.992Z,48.50
2019-05-29T17:51:24.275Z,48.60
2019-05-29T17:53:51.516Z,49.40
2019-05-29T17:56:30.505Z,49.50
2019-05-29T17:58:48.214Z,51.00
2019-05-29T18:01:16.097Z,51.20
2019-05-29T18:03:43.558Z,50.80
2019-05-29T18:08:38.206Z,53.30
2019-05-29T18:11:05.478Z,55.60
2019-05-29T18:13:32.832Z,55.50
2019-05-29T18:16:00.199Z,55.90
2019-05-29T18:18:27.824Z,56.60
2019-05-29T18:20:55.209Z,58.30
2019-05-29T18:23:23.785Z,58.40
2019-05-29T18:25:51.497Z,60.40
2019-05-29T18:28:19.906Z,60.40
2019-05-29T18:30:47.454Z,60.60
2019-05-29T18:33:14.703Z,59.90
2019-05-29T18:35:42.402Z,60.40
2019-05-29T18:38:09.906Z,61.60
2019-05-29T18:40:37.164Z,62.00
2019-05-29T18:43:04.409Z,61.90
2019-05-29T18:45:31.682Z,64.20
2019-05-29T18:47:58.994Z,69.30
2019-05-29T18:50:27.477Z,69.60
2019-05-29T18:52:54.894Z,70.10
2019-05-29T18:55:22.782Z,70.60
2019-05-29T18:57:50.290Z,73.00
2019-05-29T19:00:17.957Z,72.60
2019-05-29T19:02:45.314Z,74.70
2019-05-29T19:05:12.797Z,76.30
2019-05-29T19:07:40.064Z,75.80
2019-05-29T19:10:07.908Z,78.00
2019-05-29T19:12:35.231Z,75.50
2019-05-29T19:15:02.636Z,77.00
2019-05-29T19:17:30.134Z,75.90
2019-05-29T19:19:57.532Z,75.10
2019-05-29T19:22:26.240Z,75.00
2019-05-29T19:24:53.624Z,75.00
2019-05-29T19:27:31.005Z,74.70
2019-05-29T19:29:50.138Z,77.20
2019-05-29T19:32:17.392Z,77.30
2019-05-29T19:34:44.748Z,76.40
2019-05-29T19:37:12.056Z,75.60
2019-05-29T19:39:39.331Z,78.70
2019-05-29T19:42:07.634Z,80.50
2019-05-29T19:44:34.896Z,80.90
2019-05-29T19:47:03.983Z,81.30
2019-05-29T19:49:31.249Z,80.90
2019-05-29T19:51:58.665Z,82.10
2019-05-29T19:54:27.337Z,82.00
2019-05-29T19:56:54.708Z,82.90
2019-05-29T19:59:22.144Z,84.40
2019-05-29T20:01:49.405Z,84.60
2019-05-29T20:04:17.492Z,84.00
2019-05-29T20:06:44.799Z,84.10
2019-05-29T20:09:12.098Z,84.70
2019-05-29T20:11:39.416Z,84.50
2019-05-29T20:14:07.598Z,85.30
2019-05-29T20:16:36.231Z,85.00
2019-05-29T20:19:03.626Z,86.20
2019-05-29T20:21:31.000Z,86.00
2019-05-29T20:23:58.405Z,86.40
2019-05-29T20:26:25.738Z,85.50
2019-05-29T20:28:52.996Z,83.20
2019-05-29T20:31:20.261Z,82.80
2019-05-29T20:33:47.588Z,83.10
2019-05-29T20:36:14.868Z,83.90
2019-05-29T20:38:42.167Z,83.40
2019-05-29T20:41:09.479Z,85.20
2019-05-29T20:43:37.598Z,85.10
2019-05-29T20:46:04.992Z,80.00
2019-05-29T20:48:32.551Z,81.10
2019-05-29T20:50:59.920Z,79.30
2019-05-29T20:53:27.166Z,80.00
2019-05-29T20:55:54.437Z,80.00
2019-05-29T20:58:24.869Z,79.50
2019-05-29T21:00:50.941Z,80.60
2019-05-29T21:03:18.245Z,79.80
2019-05-29T21:05:45.542Z,79.50
2019-05-29T21:08:12.794Z,81.10
2019-05-29T21:10:40.688Z,86.40
2019-05-29T21:13:09.257Z,86.50
2019-05-29T21:15:37.570Z,86.40
2019-05-29T21:18:05.093Z,81.50
2019-05-29T21:20:32.354Z,79.70
2019-05-29T21:22:59.593Z,78.80
2019-05-29T21:25:26.940Z,78.80
2019-05-29T21:27:54.479Z,78.90
2019-05-29T21:30:23.188Z,80.70
2019-05-29T21:32:50.462Z,87.90
2019-05-29T21:35:17.736Z,90.50
2019-05-29T21:37:46.492Z,90.20
2019-05-29T21:40:14.041Z,88.40
2019-05-29T21:42:42.760Z,88.40
2019-05-29T21:45:10.772Z,88.20
2019-05-29T21:47:39.009Z,87.70
2019-05-29T21:50:06.460Z,90.20
2019-05-29T21:52:33.781Z,90.80
2019-05-29T21:55:01.038Z,91.50
2019-05-29T21:57:28.329Z,92.30
2019-05-29T21:59:55.576Z,93.00
2019-05-29T22:04:50.118Z,91.30
2019-05-29T22:07:17.429Z,91.50
2019-05-29T22:09:44.669Z,91.30
2019-05-29T22:12:11.958Z,90.80
2019-05-29T22:14:39.265Z,91.10
2019-05-29T22:17:06.544Z,91.70
2019-05-29T22:19:33.802Z,92.50
2019-05-29T22:22:01.338Z,92.70
2019-05-29T22:24:28.654Z,93.30
2019-05-29T22:26:55.897Z,93.50
2019-05-29T22:29:23.189Z,93.90
2019-05-29T22:31:51.350Z,94.20
2019-05-29T22:34:18.709Z,94.40
2019-05-29T22:36:46.221Z,94.50
2019-05-29T22:39:13.515Z,94.70
2019-05-29T22:41:40.753Z,95.30
2019-05-29T22:44:08.030Z,96.30
2019-05-29T22:46:35.266Z,96.10
2019-05-29T22:49:02.574Z,95.90
2019-05-29T22:51:29.803Z,95.80
2019-05-29T22:53:57.905Z,96.10
2019-05-29T22:56:25.316Z,96.00
2019-05-29T22:58:53.918Z,96.30
2019-05-29T23:01:21.325Z,96.30
2019-05-29T23:03:48.612Z,96.30
2019-05-29T23:06:15.857Z,96.60
2019-05-29T23:08:43.119Z,96.80
2019-05-29T23:11:10.368Z,97.00
2019-05-29T23:13:37.623Z,97.20
2019-05-29T23:16:04.879Z,97.20
2019-05-29T23:18:32.141Z,97.70
2019-05-29T23:21:00.520Z,97.80
2019-05-29T23:23:27.953Z,98.30
2019-05-29T23:25:55.217Z,98.10
2019-05-29T23:28:23.236Z,98.20
2019-05-29T23:30:50.500Z,98.20
2019-05-29T23:33:17.734Z,97.80
2019-05-29T23:35:45.004Z,97.80
2019-05-29T23:38:12.250Z,98.00
2019-05-29T23:40:39.506Z,97.70
2019-05-29T23:43:06.745Z,97.80
2019-05-29T23:45:34.036Z,98.00
2019-05-29T23:48:01.795Z,98.20
2019-05-29T23:50:29.461Z,98.80
2019-05-29T23:52:57.926Z,98.80
2019-05-29T23:55:25.296Z,98.60
2019-05-29T23:57:53.623Z,98.60
